createdAt,value
2023-01-21T00:00:28.414Z,90.25
2023-01-21T00:02:58.997Z,90.47
2023-01-21T00:05:28.963Z,90.51
2023-01-21T00:08:01.762Z,90.67
2023-01-21T00:10:36.492Z,90.33
2023-01-21T00:13:06.325Z,90.15
2023-01-21T00:15:37.787Z,89.99
2023-01-21T00:18:07.792Z,90.02
2023-01-21T00:20:38.123Z,90.07
2023-01-21T00:23:10.995Z,90.57
2023-01-21T00:25:47.095Z,89.98
2023-01-21T00:28:19.253Z,90.06
2023-01-21T00:30:52.271Z,90.11
2023-01-21T00:33:23.735Z,89.56
2023-01-21T00:36:01.099Z,89.52
2023-01-21T00:38:31.707Z,89.66
2023-01-21T00:41:09.508Z,89.39
2023-01-21T00:43:40.459Z,89.51
2023-01-21T00:46:11.534Z,89.61
2023-01-21T00:48:41.984Z,89.74
2023-01-21T00:51:12.045Z,89.75
2023-01-21T00:53:45.269Z,89.99
2023-01-21T00:56:17.708Z,90.00
2023-01-21T00:58:47.645Z,89.74
2023-01-21T01:01:23.698Z,89.76
2023-01-21T01:03:53.612Z,89.80
2023-01-21T01:06:26.455Z,89.76
2023-01-21T01:08:58.562Z,89.90
2023-01-21T01:11:32.633Z,90.08
2023-01-21T01:14:02.660Z,89.82
2023-01-21T01:16:32.538Z,89.88
2023-01-21T01:19:02.590Z,89.84
2023-01-21T01:21:32.811Z,89.72
2023-01-21T01:24:03.384Z,89.88
2023-01-21T01:26:36.952Z,89.91
2023-01-21T01:29:07.337Z,89.86
2023-01-21T01:31:37.664Z,89.65
2023-01-21T01:34:08.824Z,89.54
2023-01-21T01:36:38.612Z,89.59
2023-01-21T01:39:09.059Z,89.79
2023-01-21T01:41:42.967Z,89.58
2023-01-21T01:44:42.727Z,89.83
2023-01-21T01:47:13.548Z,89.71
2023-01-21T01:49:45.548Z,89.59
2023-01-21T01:52:19.671Z,89.64
2023-01-21T01:54:54.466Z,89.74
2023-01-21T01:57:36.020Z,90.04
2023-01-21T02:00:11.788Z,89.62
2023-01-21T02:02:43.688Z,89.65
2023-01-21T02:05:14.439Z,89.78
2023-01-21T02:07:49.636Z,89.73
2023-01-21T02:10:24.803Z,89.40
2023-01-21T02:13:02.283Z,89.41
2023-01-21T02:15:43.667Z,89.62
2023-01-21T02:18:25.552Z,89.36
2023-01-21T02:21:30.263Z,89.45
2023-01-21T02:24:25.700Z,89.21
2023-01-21T02:27:30.967Z,89.31
2023-01-21T02:30:35.181Z,89.69
2023-01-21T02:33:36.174Z,89.54
2023-01-21T02:36:19.185Z,89.53
2023-01-21T02:39:01.063Z,89.70
2023-01-21T02:41:45.787Z,89.27
2023-01-21T02:44:23.219Z,89.53
2023-01-21T02:47:02.394Z,89.78
2023-01-21T02:49:42.247Z,89.70
2023-01-21T02:52:20.550Z,89.74
2023-01-21T02:54:57.319Z,89.71
2023-01-21T02:57:47.661Z,89.47
2023-01-21T03:00:23.349Z,89.39
2023-01-21T03:03:36.458Z,89.26
2023-01-21T03:06:39.165Z,89.54
2023-01-21T03:09:21.190Z,89.42
2023-01-21T03:12:02.048Z,89.47
2023-01-21T03:15:01.185Z,89.33
2023-01-21T03:17:42.015Z,89.48
2023-01-21T03:20:16.081Z,89.48
2023-01-21T03:22:51.891Z,89.77
2023-01-21T03:25:23.476Z,89.59
2023-01-21T03:27:57.719Z,89.68
2023-01-21T03:30:30.774Z,89.49
2023-01-21T03:33:04.304Z,89.14
2023-01-21T03:35:40.969Z,89.28
2023-01-21T03:38:20.695Z,89.49
2023-01-21T03:41:00.561Z,89.22
2023-01-21T03:43:30.724Z,89.50
2023-01-21T03:46:10.481Z,89.39
2023-01-21T03:48:50.097Z,89.37
2023-01-21T03:51:25.550Z,89.59
2023-01-21T03:54:00.342Z,89.62
2023-01-21T03:56:31.248Z,89.42
2023-01-21T03:59:01.195Z,89.71
2023-01-21T04:01:31.346Z,89.71
2023-01-21T04:04:01.545Z,89.64
2023-01-21T04:06:31.596Z,89.64
2023-01-21T04:09:04.292Z,89.81
2023-01-21T04:11:34.297Z,89.69
2023-01-21T04:14:04.421Z,89.56
2023-01-21T04:16:34.582Z,89.45
2023-01-21T04:19:06.419Z,89.46
2023-01-21T04:21:36.264Z,89.41
2023-01-21T04:24:09.688Z,89.44
2023-01-21T04:26:40.559Z,89.41
2023-01-21T04:29:10.506Z,89.39
2023-01-21T04:31:40.556Z,89.34
2023-01-21T04:34:10.456Z,89.43
2023-01-21T04:36:40.880Z,89.34
2023-01-21T04:39:14.032Z,89.56
2023-01-21T04:41:43.829Z,89.52
2023-01-21T04:44:13.821Z,89.64
2023-01-21T04:46:43.989Z,89.34
2023-01-21T04:49:14.221Z,89.24
2023-01-21T04:51:44.363Z,89.61
2023-01-21T04:54:16.904Z,89.56
2023-01-21T04:56:47.638Z,89.62
2023-01-21T04:59:17.821Z,89.62
2023-01-21T05:01:47.569Z,89.50
2023-01-21T05:04:17.584Z,89.47
2023-01-21T05:06:47.409Z,89.40
2023-01-21T05:09:20.310Z,89.38
2023-01-21T05:11:50.140Z,89.44
2023-01-21T05:14:19.993Z,89.48
2023-01-21T05:16:50.262Z,89.41
2023-01-21T05:19:20.363Z,89.43
2023-01-21T05:21:50.247Z,89.54
2023-01-21T05:24:22.679Z,89.67
2023-01-21T05:26:52.574Z,89.36
2023-01-21T05:29:23.171Z,89.47
2023-01-21T05:31:53.064Z,89.31
2023-01-21T05:34:23.165Z,89.70
2023-01-21T05:36:53.019Z,89.27
2023-01-21T05:39:28.088Z,89.28
2023-01-21T05:41:58.198Z,89.41
2023-01-21T05:44:28.064Z,89.28
2023-01-21T05:46:58.136Z,88.79
2023-01-21T05:49:28.095Z,88.99
2023-01-21T05:51:57.920Z,89.14
2023-01-21T05:54:30.810Z,89.23
2023-01-21T05:57:01.057Z,89.04
2023-01-21T05:59:30.935Z,89.03
2023-01-21T06:02:00.888Z,88.87
2023-01-21T06:04:31.650Z,89.15
2023-01-21T06:07:01.502Z,89.17
2023-01-21T06:09:34.302Z,88.85
2023-01-21T06:12:04.183Z,88.95
2023-01-21T06:14:34.068Z,89.00
2023-01-21T06:17:04.474Z,88.77
2023-01-21T06:19:34.603Z,88.66
2023-01-21T06:22:04.401Z,89.01
2023-01-21T06:24:36.979Z,87.93
2023-01-21T06:27:06.992Z,87.82
2023-01-21T06:29:37.238Z,87.58
2023-01-21T06:32:07.679Z,87.79
2023-01-21T06:34:37.612Z,87.69
2023-01-21T06:37:07.842Z,87.93
2023-01-21T06:39:40.413Z,87.91
2023-01-21T06:42:10.211Z,87.84
2023-01-21T06:44:40.009Z,87.90
2023-01-21T06:47:09.819Z,87.87
2023-01-21T06:49:39.864Z,88.01
2023-01-21T06:52:09.974Z,88.13
2023-01-21T06:54:43.360Z,88.05
2023-01-21T06:57:13.989Z,88.09
2023-01-21T06:59:44.533Z,87.92
2023-01-21T07:02:16.084Z,87.83
2023-01-21T07:04:46.036Z,87.81
2023-01-21T07:07:15.936Z,87.81
2023-01-21T07:09:48.739Z,87.67
2023-01-21T07:12:18.786Z,87.49
2023-01-21T07:14:49.030Z,87.40
2023-01-21T07:17:21.612Z,87.09
2023-01-21T07:19:51.802Z,87.27
2023-01-21T07:22:21.681Z,87.77
2023-01-21T07:24:54.116Z,87.75
2023-01-21T07:27:24.346Z,87.68
2023-01-21T07:29:54.223Z,87.69
2023-01-21T07:32:24.089Z,87.75
2023-01-21T07:34:54.165Z,87.52
2023-01-21T07:37:24.338Z,87.46
2023-01-21T07:39:56.949Z,86.92
2023-01-21T07:42:26.832Z,86.96
2023-01-21T07:44:57.207Z,86.15
2023-01-21T07:47:27.457Z,86.17
2023-01-21T07:49:57.279Z,85.43
2023-01-21T07:52:29.482Z,85.69
2023-01-21T07:55:01.879Z,85.70
2023-01-21T07:57:32.657Z,85.40
2023-01-21T08:00:02.508Z,88.47
2023-01-21T08:02:41.547Z,86.80
2023-01-21T08:05:12.889Z,85.73
2023-01-21T08:07:43.389Z,83.49
2023-01-21T08:10:17.908Z,81.87
2023-01-21T08:12:48.001Z,80.92
2023-01-21T08:15:18.169Z,80.58
2023-01-21T08:17:50.701Z,79.08
2023-01-21T08:20:20.785Z,79.51
2023-01-21T08:22:50.895Z,78.63
2023-01-21T08:25:23.531Z,78.33
2023-01-21T08:27:53.524Z,77.43
2023-01-21T08:30:23.618Z,77.52
2023-01-21T08:32:53.633Z,77.00
2023-01-21T08:35:23.820Z,76.40
2023-01-21T08:37:53.850Z,76.87
2023-01-21T08:40:27.518Z,76.92
2023-01-21T08:43:01.646Z,76.50
2023-01-21T08:45:32.703Z,77.06
2023-01-21T08:48:05.528Z,78.35
2023-01-21T08:50:35.815Z,79.31
2023-01-21T08:53:05.658Z,79.16
2023-01-21T08:55:38.447Z,79.62
2023-01-21T08:58:08.402Z,79.99
2023-01-21T09:00:38.456Z,80.02
2023-01-21T09:03:08.389Z,81.40
2023-01-21T09:05:38.399Z,80.98
2023-01-21T09:08:08.723Z,80.35
2023-01-21T09:10:54.307Z,80.98
2023-01-21T09:13:24.249Z,81.43
2023-01-21T09:15:54.075Z,80.58
2023-01-21T09:18:24.353Z,80.86
2023-01-21T09:20:54.292Z,80.71
2023-01-21T09:23:32.368Z,81.24
2023-01-21T09:26:09.213Z,81.43
2023-01-21T09:28:42.436Z,81.80
2023-01-21T09:31:15.465Z,81.47
2023-01-21T09:33:48.483Z,81.53
2023-01-21T09:36:20.537Z,81.47
2023-01-21T09:38:52.692Z,81.43
2023-01-21T09:41:31.030Z,81.73
2023-01-21T09:44:15.999Z,81.58
2023-01-21T09:46:54.091Z,81.40
2023-01-21T09:49:32.300Z,81.48
2023-01-21T09:52:11.733Z,80.84
2023-01-21T09:54:42.929Z,81.00
2023-01-21T09:57:33.910Z,80.41
2023-01-21T10:00:24.808Z,80.59
2023-01-21T10:03:04.626Z,80.41
2023-01-21T10:05:56.222Z,80.71
2023-01-21T10:08:39.720Z,80.86
2023-01-21T10:11:35.421Z,80.15
2023-01-21T10:14:27.689Z,79.48
2023-01-21T10:17:09.270Z,79.45
2023-01-21T10:19:46.045Z,79.02
2023-01-21T10:22:21.455Z,79.50
2023-01-21T10:24:57.329Z,79.81
2023-01-21T10:27:30.167Z,79.26
2023-01-21T10:30:12.324Z,79.73
2023-01-21T10:32:43.398Z,77.14
2023-01-21T10:35:22.322Z,78.05
2023-01-21T10:38:02.384Z,78.51
2023-01-21T10:40:46.227Z,78.99
2023-01-21T10:43:31.211Z,77.55
2023-01-21T10:46:17.939Z,77.37
2023-01-21T10:48:59.539Z,78.31
2023-01-21T10:51:38.410Z,79.31
2023-01-21T10:54:22.463Z,79.42
2023-01-21T10:57:06.804Z,80.13
2023-01-21T10:59:41.280Z,80.25
2023-01-21T11:02:26.543Z,80.67
2023-01-21T11:04:59.811Z,80.25
2023-01-21T11:07:32.957Z,80.17
2023-01-21T11:10:05.186Z,79.95
2023-01-21T11:12:35.507Z,79.88
2023-01-21T11:15:16.997Z,79.65
2023-01-21T11:17:54.080Z,79.88
2023-01-21T11:20:28.160Z,79.81
2023-01-21T11:22:58.170Z,79.87
2023-01-21T11:25:41.069Z,79.87
2023-01-21T11:28:26.637Z,80.36
2023-01-21T11:31:10.070Z,80.53
2023-01-21T11:33:45.052Z,80.19
2023-01-21T11:36:19.056Z,80.03
2023-01-21T11:39:01.629Z,80.22
2023-01-21T11:41:31.616Z,80.19
2023-01-21T11:44:15.433Z,80.22
2023-01-21T11:46:45.575Z,80.39
2023-01-21T11:49:28.969Z,80.71
2023-01-21T11:52:17.288Z,80.91
2023-01-21T11:54:48.075Z,80.55
2023-01-21T11:57:30.532Z,81.09
2023-01-21T12:00:15.268Z,81.02
2023-01-21T12:02:49.760Z,81.09
2023-01-21T12:05:30.256Z,81.14
2023-01-21T12:08:01.538Z,81.29
2023-01-21T12:10:36.345Z,81.46
2023-01-21T12:13:32.880Z,81.79
2023-01-21T12:16:30.336Z,81.05
2023-01-21T12:19:33.792Z,81.32
2023-01-21T12:22:32.368Z,81.32
2023-01-21T12:25:38.595Z,81.59
2023-01-21T12:28:33.319Z,81.40
2023-01-21T12:31:21.690Z,81.98
2023-01-21T12:33:58.020Z,81.46
2023-01-21T12:36:36.277Z,81.40
2023-01-21T12:39:19.760Z,81.70
2023-01-21T12:41:59.560Z,82.13
2023-01-21T12:44:36.499Z,82.30
2023-01-21T12:47:14.439Z,82.73
2023-01-21T12:50:06.482Z,82.57
2023-01-21T12:52:45.177Z,82.26
2023-01-21T12:55:24.860Z,82.42
2023-01-21T12:58:06.089Z,81.72
2023-01-21T13:00:42.686Z,81.78
2023-01-21T13:03:24.013Z,82.01
2023-01-21T13:06:00.479Z,82.30
2023-01-21T13:08:47.542Z,82.55
2023-01-21T13:11:24.486Z,82.41
2023-01-21T13:14:17.981Z,82.38
2023-01-21T13:16:54.500Z,83.14
2023-01-21T13:19:24.400Z,83.12
2023-01-21T13:22:07.583Z,83.06
2023-01-21T13:25:03.350Z,83.00
2023-01-21T13:27:47.203Z,82.90
2023-01-21T13:30:31.914Z,82.59
2023-01-21T13:33:18.975Z,83.41
2023-01-21T13:35:59.974Z,83.47
2023-01-21T13:38:41.596Z,83.09
2023-01-21T13:41:33.429Z,82.64
2023-01-21T13:44:46.891Z,83.13
2023-01-21T13:47:32.834Z,83.20
2023-01-21T13:50:19.369Z,83.50
2023-01-21T13:53:14.040Z,83.73
2023-01-21T13:55:59.815Z,82.91
2023-01-21T13:58:40.776Z,83.19
2023-01-21T14:01:20.702Z,83.87
2023-01-21T14:04:02.049Z,84.02
2023-01-21T14:06:43.623Z,83.90
2023-01-21T14:09:23.215Z,83.83
2023-01-21T14:12:01.964Z,83.75
2023-01-21T14:15:11.003Z,84.51
2023-01-21T14:18:08.052Z,83.65
2023-01-21T14:21:25.598Z,83.80
2023-01-21T14:24:11.938Z,83.75
2023-01-21T14:27:04.514Z,83.77
2023-01-21T14:29:42.149Z,84.31
2023-01-21T14:32:18.995Z,84.50
2023-01-21T14:35:06.253Z,85.47
2023-01-21T14:37:44.717Z,85.72
2023-01-21T14:40:22.376Z,85.53
2023-01-21T14:42:54.839Z,85.44
2023-01-21T14:45:47.587Z,85.33
2023-01-21T14:48:33.129Z,85.35
2023-01-21T14:51:24.311Z,85.38
2023-01-21T14:54:00.178Z,85.35
2023-01-21T14:56:34.100Z,85.37
2023-01-21T14:59:08.256Z,86.12
2023-01-21T15:01:46.414Z,86.56
2023-01-21T15:04:27.117Z,86.50
2023-01-21T15:07:04.359Z,86.98
2023-01-21T15:09:38.624Z,86.63
2023-01-21T15:12:20.365Z,86.23
2023-01-21T15:14:51.124Z,86.49
2023-01-21T15:18:05.706Z,86.25
2023-01-21T15:20:50.394Z,86.69
2023-01-21T15:23:38.841Z,86.74
2023-01-21T15:26:36.552Z,85.63
2023-01-21T15:29:37.475Z,86.18
2023-01-21T15:32:29.693Z,86.11
2023-01-21T15:35:03.339Z,85.99
2023-01-21T15:37:39.703Z,86.74
2023-01-21T15:40:29.215Z,86.50
2023-01-21T15:43:07.139Z,85.91
2023-01-21T15:45:50.004Z,85.43
2023-01-21T15:48:44.110Z,85.40
2023-01-21T15:51:27.569Z,86.05
2023-01-21T15:54:15.191Z,86.86
2023-01-21T15:56:59.780Z,87.16
2023-01-21T15:59:53.334Z,86.77
2023-01-21T16:02:26.909Z,86.79
2023-01-21T16:05:15.456Z,86.80
2023-01-21T16:08:02.112Z,86.65
2023-01-21T16:10:44.562Z,87.00
2023-01-21T16:13:32.746Z,87.11
2023-01-21T16:16:14.732Z,87.26
2023-01-21T16:19:09.388Z,87.25
2023-01-21T16:21:43.208Z,87.70
2023-01-21T16:24:18.114Z,87.81
2023-01-21T16:26:48.590Z,88.17
2023-01-21T16:29:21.360Z,88.25
2023-01-21T16:31:55.313Z,88.20
2023-01-21T16:34:41.373Z,88.16
2023-01-21T16:37:15.478Z,78.45
2023-01-21T16:39:47.057Z,77.80
2023-01-21T16:42:30.139Z,80.48
2023-01-21T16:45:03.645Z,83.25
2023-01-21T16:47:39.702Z,84.91
2023-01-21T16:50:22.160Z,84.31
2023-01-21T16:52:54.028Z,85.35
2023-01-21T16:55:26.820Z,85.47
2023-01-21T16:57:59.261Z,86.23
2023-01-21T17:00:34.891Z,86.29
2023-01-21T17:03:05.430Z,86.57
2023-01-21T17:05:39.595Z,86.63
2023-01-21T17:08:15.875Z,86.70
2023-01-21T17:11:00.461Z,86.27
2023-01-21T17:13:34.110Z,86.28
2023-01-21T17:16:07.871Z,86.24
2023-01-21T17:18:42.494Z,85.52
2023-01-21T17:21:17.627Z,85.27
2023-01-21T17:23:54.389Z,85.11
2023-01-21T17:26:30.435Z,85.51
2023-01-21T17:29:10.366Z,85.88
2023-01-21T17:31:45.423Z,85.65
2023-01-21T17:34:24.749Z,85.68
2023-01-21T17:36:58.082Z,85.73
2023-01-21T17:39:57.928Z,85.61
2023-01-21T17:42:35.257Z,85.62
2023-01-21T17:45:07.353Z,85.57
2023-01-21T17:48:03.615Z,85.59
2023-01-21T17:50:33.951Z,85.61
2023-01-21T17:53:10.041Z,85.26
2023-01-21T17:55:41.963Z,85.50
2023-01-21T17:58:53.623Z,85.78
2023-01-21T18:01:23.955Z,86.02
2023-01-21T18:03:56.479Z,86.65
2023-01-21T18:06:30.456Z,86.16
2023-01-21T18:09:01.072Z,86.05
2023-01-21T18:11:30.906Z,86.00
2023-01-21T18:14:01.098Z,86.25
2023-01-21T18:16:31.674Z,86.44
2023-01-21T18:19:04.564Z,86.79
2023-01-21T18:21:34.487Z,86.87
2023-01-21T18:24:04.288Z,87.20
2023-01-21T18:26:38.396Z,87.01
2023-01-21T18:29:08.435Z,87.21
2023-01-21T18:31:38.634Z,87.11
2023-01-21T18:34:14.942Z,87.09
2023-01-21T18:36:45.501Z,87.47
2023-01-21T18:39:18.686Z,87.81
2023-01-21T18:41:49.067Z,87.81
2023-01-21T18:44:18.961Z,88.25
2023-01-21T18:46:49.084Z,88.31
2023-01-21T18:49:23.366Z,87.81
2023-01-21T18:51:53.523Z,88.18
2023-01-21T18:54:23.375Z,88.15
2023-01-21T18:56:53.657Z,88.15
2023-01-21T18:59:24.545Z,88.25
2023-01-21T19:01:55.157Z,88.20
2023-01-21T19:04:27.600Z,87.54
2023-01-21T19:06:57.675Z,87.35
2023-01-21T19:09:29.066Z,87.71
2023-01-21T19:11:58.916Z,87.70
2023-01-21T19:14:28.737Z,87.54
2023-01-21T19:16:58.884Z,87.30
2023-01-21T19:19:31.270Z,87.31
2023-01-21T19:22:01.086Z,87.25
2023-01-21T19:24:30.868Z,87.20
2023-01-21T19:27:01.998Z,87.24
2023-01-21T19:29:31.846Z,87.47
2023-01-21T19:32:01.808Z,87.74
2023-01-21T19:34:34.538Z,87.63
2023-01-21T19:37:04.465Z,87.57
2023-01-21T19:39:34.579Z,87.95
2023-01-21T19:42:08.767Z,87.85
2023-01-21T19:44:39.356Z,87.57
2023-01-21T19:47:19.640Z,87.70
2023-01-21T19:49:52.057Z,87.53
2023-01-21T19:52:22.192Z,87.84
2023-01-21T19:54:54.924Z,87.75
2023-01-21T19:57:25.280Z,87.44
2023-01-21T19:59:56.198Z,87.42
2023-01-21T20:02:26.174Z,87.26
2023-01-21T20:04:58.927Z,87.52
2023-01-21T20:07:28.927Z,87.86
2023-01-21T20:09:58.735Z,87.64
2023-01-21T20:12:29.110Z,87.43
2023-01-21T20:14:59.451Z,87.09
2023-01-21T20:17:29.837Z,86.71
2023-01-21T20:20:02.883Z,82.75
2023-01-21T20:22:33.231Z,82.04
2023-01-21T20:25:03.120Z,83.87
2023-01-21T20:27:33.001Z,81.83
2023-01-21T20:30:15.347Z,82.79
2023-01-21T20:32:46.285Z,85.11
2023-01-21T20:35:19.966Z,86.03
2023-01-21T20:37:53.162Z,86.73
2023-01-21T20:40:25.845Z,86.64
2023-01-21T20:42:57.398Z,86.35
2023-01-21T20:45:34.196Z,86.71
2023-01-21T20:48:06.651Z,87.10
2023-01-21T20:50:39.127Z,87.15
2023-01-21T20:53:09.268Z,86.86
2023-01-21T20:55:40.075Z,86.69
2023-01-21T20:58:10.080Z,86.84
2023-01-21T21:00:40.028Z,86.69
2023-01-21T21:03:10.058Z,86.89
2023-01-21T21:05:42.963Z,86.95
2023-01-21T21:08:17.870Z,87.12
2023-01-21T21:10:49.729Z,87.18
2023-01-21T21:13:20.067Z,87.21
2023-01-21T21:15:57.055Z,87.37
2023-01-21T21:18:27.308Z,87.58
2023-01-21T21:20:59.753Z,87.60
2023-01-21T21:23:30.317Z,87.39
2023-01-21T21:26:00.664Z,87.55
2023-01-21T21:28:30.651Z,87.57
2023-01-21T21:31:03.741Z,87.24
2023-01-21T21:33:33.596Z,87.25
2023-01-21T21:36:06.347Z,87.52
2023-01-21T21:38:36.566Z,87.46
2023-01-21T21:41:27.770Z,87.79
2023-01-21T21:43:55.027Z,87.69
2023-01-21T21:46:37.831Z,87.93
2023-01-21T21:49:07.691Z,87.73
2023-01-21T21:51:40.472Z,87.56
2023-01-21T21:54:11.890Z,87.91
2023-01-21T21:56:42.060Z,88.04
2023-01-21T21:59:12.522Z,87.84
2023-01-21T22:01:44.968Z,87.85
2023-01-21T22:04:15.116Z,87.63
2023-01-21T22:06:48.512Z,87.82
2023-01-21T22:09:18.910Z,87.75
2023-01-21T22:11:48.980Z,87.84
2023-01-21T22:14:19.307Z,88.02
2023-01-21T22:16:50.223Z,87.83
2023-01-21T22:19:20.507Z,88.10
2023-01-21T22:21:53.416Z,88.05
2023-01-21T22:24:23.325Z,88.07
2023-01-21T22:26:53.268Z,87.89
2023-01-21T22:29:23.477Z,88.35
2023-01-21T22:31:53.396Z,88.27
2023-01-21T22:34:23.293Z,88.52
2023-01-21T22:36:55.769Z,88.51
2023-01-21T22:39:25.930Z,88.35
2023-01-21T22:42:00.611Z,88.50
2023-01-21T22:44:30.457Z,88.53
2023-01-21T22:47:01.010Z,88.55
2023-01-21T22:49:31.275Z,88.60
2023-01-21T22:52:03.868Z,88.21
2023-01-21T22:54:33.923Z,88.30
2023-01-21T22:57:04.057Z,88.34
2023-01-21T22:59:34.751Z,88.37
2023-01-21T23:04:41.291Z,88.55
2023-01-21T23:07:13.859Z,88.46
2023-01-21T23:09:43.781Z,88.45
2023-01-21T23:12:18.960Z,88.66
2023-01-21T23:14:49.411Z,88.54
2023-01-21T23:17:19.605Z,88.46
2023-01-21T23:19:49.565Z,88.39
2023-01-21T23:22:22.422Z,88.46
2023-01-21T23:24:52.548Z,88.68
2023-01-21T23:27:22.516Z,88.38
2023-01-21T23:29:52.849Z,88.35
2023-01-21T23:32:23.925Z,88.35
2023-01-21T23:34:53.814Z,88.41
2023-01-21T23:37:26.343Z,88.34
2023-01-21T23:39:56.115Z,88.45
2023-01-21T23:42:26.007Z,88.66
2023-01-21T23:44:55.784Z,88.53
2023-01-21T23:47:26.009Z,88.40
2023-01-21T23:49:55.854Z,88.36
2023-01-21T23:52:29.975Z,88.31
2023-01-21T23:54:59.791Z,88.41
2023-01-21T23:57:29.603Z,88.28
2023-01-21T23:59:59.420Z,88.44
